Terminal Aerodrome Forecast
Issued by NWS

Home | Current Version | Previous Version | Text Only | Print | Product List | Glossary On
Versions: 1 2 3 4 5 6 7 8 9 10 11 12 13 14 15 16 17 18 19 20
643
FTUS41 KPHI 091740
TAFMIV
TAF
KMIV 091740Z 0918/1018 08005KT 6SM -RA BKN012 OVC020
     FM100300 31006KT 4SM BR OVC010
     FM100700 29006KT P6SM OVC019
     FM101100 28007KT P6SM SCT020 OVC060
     FM101300 28010G17KT P6SM BKN050=

USA.gov is the U.S. government's official web portal to all federal, state and local government web resources and services.